Buoy 56916

sailwx.info

Track history (hours):
 
Tides and Currents Weather Stations Pressure Air Temp Water Temp Dewpoint Dewpoint Depression Visibility Wind Speed Wind Dir Waves Ship Positions

Drifting buoy 56916

Last reported at 2016-Dec-11 00:00 UTC. Time now 2016-Dec-11 06:06 UTC.
Position S 50°01' E 145°55'.

Barometer 1013.5 mb
Water temperature 7.9 ° C

Date/timePositionNaut miles runAvg speedWind from/ knotsBaromVisibWave heightAir tempDewpointWater temp
2016-Dec-11 00:00S 50°01' E 145°55'1 1.2 1013.5 7.9
2016-Dec-10 23:00S 50°01' E 145°53'0 0.4 1013.2 7.9
2016-Dec-10 22:00S 50°01' E 145°52'2 1.0 1013.1 7.9
2016-Dec-10 20:00S 50°01' E 145°49'1 1.2 1012.0 7.9
2016-Dec-10 19:00S 50°01' E 145°47'5 1.6 1011.3 7.9
2016-Dec-10 16:00S 49°59' E 145°40'0 0.0 1009.5 7.9
2016-Dec-10 15:00S 49°59' E 145°40'1 1.3 1009.0 7.9
2016-Dec-10 14:00S 49°59' E 145°38'1 0.7 1008.4 7.9
2016-Dec-10 13:00S 49°58' E 145°39'1 0.8 1007.9 8.0
2016-Dec-10 12:00S 49°58' E 145°38'0 0.4 1007.3 8.0
2016-Dec-10 11:00S 49°58' E 145°37'0 0.4 1006.8 8.0
2016-Dec-10 10:00S 49°58' E 145°37'1 0.8 1005.8 8.0
2016-Dec-10 09:00S 49°58' E 145°35'1 0.7 1004.8 8.0
2016-Dec-10 08:00S 49°59' E 145°35'1 0.7 1004.2 8.1
2016-Dec-10 07:00S 49°59' E 145°34'2 2.3 1003.1 8.1
2016-Dec-10 06:00S 50°01' E 145°31'0 0.0 1002.2 8.1
2016-Dec-10 05:00S 50°01' E 145°31'0 0.0 1001.4 8.0
2016-Dec-10 04:00S 50°01' E 145°31'7 1.1 1000.6 8.0
2016-Dec-09 22:00S 50°00' E 145°21'1 1.0 1001.5 8.0
2016-Dec-09 21:00S 50°01' E 145°20'1 0.7 1001.6 7.9
2016-Dec-09 20:00S 50°00' E 145°19'2 2.0 1001.6 7.9
2016-Dec-09 19:00S 50°01' E 145°17'0 0.0 1001.6 7.9
2016-Dec-09 18:00S 50°01' E 145°17'1 0.6 1001.6 7.9
2016-Dec-09 17:00S 50°01' E 145°17'2 1.7 1001.7 7.9
2016-Dec-09 16:00S 50°02' E 145°15'0 0.0 1002.1 7.9
2016-Dec-09 15:00S 50°02' E 145°15'2 1.7 1002.8 7.9
2016-Dec-09 14:00S 50°03' E 145°13'1 0.7 1003.2 7.9
2016-Dec-09 13:00S 50°02' E 145°13'1 1.3 1003.8 7.9
2016-Dec-09 12:00S 50°03' E 145°11'1 0.7 1004.4 7.9
2016-Dec-09 11:00S 50°04' E 145°10'3 1.4 1004.8 7.9
2016-Dec-09 09:00S 50°03' E 145°06'1 0.7 1004.9 7.9
2016-Dec-09 08:00S 50°02' E 145°05'2 1.7 1004.8 7.9
2016-Dec-09 07:00S 50°03' E 145°03'0 0.0 1004.7 8.0
2016-Dec-09 06:00S 50°03' E 145°03'0 0.0 1004.6 8.0
2016-Dec-09 05:00S 50°03' E 145°03'0 0.0 1004.4 7.9
2016-Dec-09 04:00S 50°03' E 145°03'4 0.8 1004.2 7.9
2016-Dec-08 23:00S 50°07' E 145°01'0 0.0 1002.3 7.9
2016-Dec-08 22:00S 50°07' E 145°01'2 2.3 1002.0 7.9
2016-Dec-08 21:00S 50°08' E 144°58'3 0.8 1001.2 7.9
2016-Dec-08 17:00S 50°09' E 144°53'0 0.0 998.4 7.9
2016-Dec-08 16:00S 50°09' E 144°53'0 0.0 997.7 8.0
2016-Dec-08 15:00S 50°09' E 144°53'0 0.4 997.4 8.0
2016-Dec-08 14:00S 50°09' E 144°52'0 0.0 996.9 8.0
2016-Dec-08 13:00S 50°09' E 144°52'1 0.7 996.7 8.0
2016-Dec-08 12:00S 50°10' E 144°52'1 1.4 996.5 8.0
2016-Dec-08 11:00S 50°11' E 144°53'1 0.6 996.3 8.0
2016-Dec-08 09:00S 50°12' E 144°53'1 1.4 994.3 8.0
2016-Dec-08 08:00S 50°13' E 144°52'0 0.0 993.2 8.0
2016-Dec-08 07:00S 50°13' E 144°52'2 1.9 992.3 8.0
2016-Dec-08 06:00S 50°14' E 144°49'0 0.0 991.4 8.1
2016-Dec-08 05:00S 50°14' E 144°49'2 1.7 991.0 8.1
2016-Dec-08 04:00S 50°16' E 144°47'3 0.6 990.1 8.2
2016-Dec-08 00:00S 50°17' E 144°44'1 0.6 989.1 8.0
2016-Dec-07 23:00S 50°17' E 144°44'1 0.8 989.5 8.0
2016-Dec-07 22:00S 50°17' E 144°43'0 0.0 989.8 8.0
2016-Dec-07 21:00S 50°17' E 144°43'1 1.3 989.2 8.0
2016-Dec-07 20:00S 50°19' E 144°42'0 0.0 989.0 8.0
2016-Dec-07 19:00S 50°19' E 144°42'1 1.4 988.8 8.0
2016-Dec-07 18:00S 50°20' E 144°41'0 0.0 989.1 8.0
2016-Dec-07 17:00S 50°20' E 144°41'2 1.7 989.0 8.0
2016-Dec-07 16:00S 50°21' E 144°39'2 1.9 989.4 8.0
2016-Dec-07 15:00S 50°22' E 144°37'1 0.6 989.5 8.0
2016-Dec-07 14:00S 50°23' E 144°37'1 1.3 989.7 8.0
2016-Dec-07 13:00S 50°23' E 144°35'1 0.8 989.8 8.0
2016-Dec-07 12:00S 50°23' E 144°34'1 0.7 989.7 8.0
2016-Dec-07 11:00S 50°24' E 144°33'2 0.6 989.9 8.0
2016-Dec-07 08:00S 50°24' E 144°30'0 0.4 990.3 8.0
2016-Dec-07 07:00S 50°24' E 144°29'5 0.6 990.8 8.0
2016-Dec-06 23:00S 50°28' E 144°25'1 1.0 998.5 8.0
2016-Dec-06 22:00S 50°28' E 144°23'0 0.0 998.7 8.0
2016-Dec-06 21:00S 50°28' E 144°23'1 1.3 998.5 8.0
2016-Dec-06 20:00S 50°29' E 144°22'1 1.3 997.9 8.0
2016-Dec-06 19:00S 50°29' E 144°20'0 0.0 997.5 7.9
2016-Dec-06 18:00S 50°29' E 144°20'1 0.4 996.7 8.0
2016-Dec-06 16:00S 50°29' E 144°19'0 0.0 995.5 8.0
2016-Dec-06 15:00S 50°29' E 144°19'1 1.2 994.3 8.0
2016-Dec-06 14:00S 50°31' E 144°19'0 0.0 993.7 8.0
2016-Dec-06 13:00S 50°31' E 144°19'1 1.2 993.3 8.0
2016-Dec-06 12:00S 50°32' E 144°19'1 0.7 992.9 8.1
2016-Dec-06 11:00S 50°32' E 144°18'2 1.7 993.0 8.1
2016-Dec-06 10:00S 50°34' E 144°16'0 0.0 993.3 8.1
2016-Dec-06 09:00S 50°34' E 144°16'2 0.6 994.1 8.1
2016-Dec-06 06:00S 50°35' E 144°14'2 1.6 995.8 8.1
2016-Dec-06 05:00S 50°35' E 144°11'0 0.0 996.2 8.1
2016-Dec-06 04:00S 50°35' E 144°11'0 0.0 996.3 8.0
2016-Dec-06 03:00S 50°35' E 144°11'1 0.3 996.1 8.0
2016-Dec-06 00:00S 50°35' E 144°10'1 0.7 996.8 7.9
2016-Dec-05 23:00S 50°36' E 144°11'1 0.8 997.4 7.9
2016-Dec-05 22:00S 50°36' E 144°10'1 0.6 997.9 7.9
2016-Dec-05 21:00S 50°37' E 144°10'2 2.0 997.9 7.9
2016-Dec-05 20:00S 50°38' E 144°08'0 0.0 997.8 7.9
2016-Dec-05 19:00S 50°38' E 144°08'1 0.7 997.4 7.9
2016-Dec-05 18:00S 50°39' E 144°08'1 1.3 996.9 7.9
2016-Dec-05 17:00S 50°40' E 144°06'0 0.0 996.3 7.9
2016-Dec-05 16:00S 50°40' E 144°06'2 2.0 996.4 7.9
2016-Dec-05 15:00S 50°41' E 144°05'0 0.0 995.9 7.9
2016-Dec-05 14:00S 50°41' E 144°05'1 1.3 995.7 7.9
2016-Dec-05 13:00S 50°41' E 144°03'1 0.7 995.3 7.9
2016-Dec-05 12:00S 50°41' E 144°02'1 1.1 995.0 7.9
2016-Dec-05 11:00S 50°41' E 144°01'0 0.0 994.6 7.9
2016-Dec-05 10:00S 50°41' E 144°01'1 1.3 993.8 7.9
2016-Dec-05 09:00S 50°43' E 144°00'0 0.0 993.2 7.9
2016-Dec-05 08:00S 50°43' E 144°00'0 0.2 992.2 7.9
2016-Dec-05 06:00S 50°43' E 143°59'1 0.7 990.0 7.9
2016-Dec-05 05:00S 50°43' E 143°59'7 1.1 988.6 7.9
2016-Dec-04 23:00S 50°49' E 143°54'1 1.0 974.4 7.8
2016-Dec-04 22:00S 50°50' E 143°53'2 1.2 970.9 7.8
2016-Dec-04 20:00S 50°50' E 143°49'1 1.0 970.6 7.8
2016-Dec-04 19:00S 50°51' E 143°48'1 0.6 971.8 7.8
2016-Dec-04 18:00S 50°50' E 143°48'1 0.6 972.8 7.8
2016-Dec-04 16:00S 50°50' E 143°46'1 0.7 975.7 7.8
2016-Dec-04 15:00S 50°50' E 143°46'1 0.6 977.5 7.8
2016-Dec-04 14:00S 50°50' E 143°46'0 0.4 979.7 7.9
2016-Dec-04 13:00S 50°50' E 143°46'0 0.0 982.0 7.9
2016-Dec-04 12:00S 50°50' E 143°46'0 0.4 984.7 7.9
2016-Dec-04 11:00S 50°50' E 143°46'0 0.0 986.9 7.9
2016-Dec-04 10:00S 50°50' E 143°46'2 1.7 989.0 7.9
2016-Dec-04 09:00S 50°52' E 143°44'0 0.4 990.6 7.9
2016-Dec-04 08:00S 50°52' E 143°43'0 0.0 991.9 7.9
2016-Dec-04 07:00S 50°52' E 143°43'2 1.0 992.7 7.9
2016-Dec-04 05:00S 50°52' E 143°40'0 0.0 993.9 7.9
2016-Dec-04 04:00S 50°52' E 143°40'2 0.5 994.4 7.9
2016-Dec-03 23:00S 50°52' E 143°37'0 0.0 997.8 7.8
2016-Dec-03 22:00S 50°52' E 143°37'0 0.0 998.7 7.8
2016-Dec-03 21:00S 50°52' E 143°37'1 1.3 998.9 7.8
2016-Dec-03 20:00S 50°51' E 143°35'1 0.7 998.7 7.8
2016-Dec-03 19:00S 50°52' E 143°35'1 0.6 998.7 7.8
2016-Dec-03 18:00S 50°52' E 143°35'0 0.0 998.8 7.7
2016-Dec-03 17:00S 50°52' E 143°35'1 0.8 998.8 7.7
2016-Dec-03 16:00S 50°52' E 143°34'0 0.0 999.0 7.7
2016-Dec-03 15:00S 50°52' E 143°34'1 1.0 999.0 7.7
2016-Dec-03 14:00S 50°53' E 143°33'1 0.4 998.8 7.7
2016-Dec-03 12:00S 50°53' E 143°32'0 0.0 998.5 7.7
2016-Dec-03 11:00S 50°53' E 143°32'0 0.4 998.3 7.7
2016-Dec-03 10:00S 50°53' E 143°31'0 0.4 997.7 7.7
2016-Dec-03 09:00S 50°53' E 143°31'0 0.2 997.3 7.7
2016-Dec-03 07:00S 50°53' E 143°30'0 0.0 996.5 7.7
2016-Dec-03 06:00S 50°53' E 143°30'3 0.5 996.3 7.7
2016-Dec-03 00:00S 50°54' E 143°26'0 0.4 995.5 7.6
2016-Dec-02 23:00S 50°54' E 143°25'1 0.2 995.3 7.6
2016-Dec-02 20:00S 50°55' E 143°25'1 0.3 993.9 7.6
2016-Dec-02 17:00S 50°55' E 143°24'0 0.0 992.5 7.6
2016-Dec-02 16:00S 50°55' E 143°24'1 1.3 992.5 7.6
2016-Dec-02 15:00S 50°55' E 143°22'0 0.0 992.5 7.6
2016-Dec-02 14:00S 50°55' E 143°22'0 0.4 992.1 7.6
2016-Dec-02 13:00S 50°55' E 143°22'1 0.4 991.9 7.6
2016-Dec-02 11:00S 50°56' E 143°21'0 0.4 991.6 7.6
2016-Dec-02 10:00S 50°56' E 143°20'1 0.7 990.7 7.7
2016-Dec-02 09:00S 50°56' E 143°20'0 0.0 990.4 7.7
2016-Dec-02 08:00S 50°56' E 143°20'1 0.6 990.1 7.7
2016-Dec-02 06:00S 50°56' E 143°18'1 0.8 989.7 7.8
2016-Dec-02 05:00S 50°56' E 143°17'0 0.0 989.6 7.8
2016-Dec-02 04:00S 50°56' E 143°17'1 0.2 989.6 7.8
2016-Dec-01 23:00S 50°56' E 143°16'1 0.6 990.3 7.6
2016-Dec-01 22:00S 50°56' E 143°16'0 0.4 990.5 7.6
2016-Dec-01 21:00S 50°56' E 143°15'1 0.7 990.4 7.6
2016-Dec-01 20:00S 50°57' E 143°14'0 0.4 990.2 7.6
2016-Dec-01 19:00S 50°57' E 143°14'1 1.1 990.1 7.6
2016-Dec-01 18:00S 50°57' E 143°12'0 0.0 990.0 7.7
2016-Dec-01 17:00S 50°57' E 143°12'0 0.4 989.6 7.7
2016-Dec-01 16:00S 50°57' E 143°11'0 0.4 989.5 7.7
2016-Dec-01 15:00S 50°57' E 143°11'1 0.3 989.2 7.7
2016-Dec-01 13:00S 50°56' E 143°11'0 0.4 991.3 7.7
2016-Dec-01 12:00S 50°56' E 143°10'0 0.0 992.9 7.7
2016-Dec-01 11:00S 50°56' E 143°10'1 0.4 994.5 7.7
2016-Dec-01 08:00S 50°56' E 143°08'0 0.4 998.1 7.7
2016-Dec-01 07:00S 50°56' E 143°08'0 0.0 999.0 7.7
2016-Dec-01 06:00S 50°56' E 143°08'0 0.4 1000.4 7.7
2016-Dec-01 05:00S 50°56' E 143°07'0 0.0 1001.2 7.7
2016-Dec-01 04:00S 50°56' E 143°07'1 0.5 1001.9 7.7
2016-Dec-01 01:00S 50°55' E 143°06'1 1.4 1004.1 7.6
2016-Dec-01 00:00S 50°56' E 143°07'   1004.9 7.6
Track history (hours):
 
Tides and Currents Weather Stations Pressure Air Temp Water Temp Dewpoint Dewpoint Depression Visibility Wind Speed Wind Dir Waves Ship Positions

Drifting buoy 56916

Last reported at 2016-Dec-11 00:00 UTC. Time now 2016-Dec-11 06:06 UTC.
Position S 50°01' E 145°55'.

Barometer 1013.5 mb
Water temperature 7.9 ° C

Date/timePositionNaut miles runAvg speedWind from/ knotsBaromVisibWave heightAir tempDewpointWater temp
2016-Dec-11 00:00S 50°01' E 145°55'1 1.2 1013.5 7.9
2016-Dec-10 23:00S 50°01' E 145°53'0 0.4 1013.2 7.9
2016-Dec-10 22:00S 50°01' E 145°52'2 1.0 1013.1 7.9
2016-Dec-10 20:00S 50°01' E 145°49'1 1.2 1012.0 7.9
2016-Dec-10 19:00S 50°01' E 145°47'5 1.6 1011.3 7.9
2016-Dec-10 16:00S 49°59' E 145°40'0 0.0 1009.5 7.9
2016-Dec-10 15:00S 49°59' E 145°40'1 1.3 1009.0 7.9
2016-Dec-10 14:00S 49°59' E 145°38'1 0.7 1008.4 7.9
2016-Dec-10 13:00S 49°58' E 145°39'1 0.8 1007.9 8.0
2016-Dec-10 12:00S 49°58' E 145°38'0 0.4 1007.3 8.0
2016-Dec-10 11:00S 49°58' E 145°37'0 0.4 1006.8 8.0
2016-Dec-10 10:00S 49°58' E 145°37'1 0.8 1005.8 8.0
2016-Dec-10 09:00S 49°58' E 145°35'1 0.7 1004.8 8.0
2016-Dec-10 08:00S 49°59' E 145°35'1 0.7 1004.2 8.1
2016-Dec-10 07:00S 49°59' E 145°34'2 2.3 1003.1 8.1
2016-Dec-10 06:00S 50°01' E 145°31'0 0.0 1002.2 8.1
2016-Dec-10 05:00S 50°01' E 145°31'0 0.0 1001.4 8.0
2016-Dec-10 04:00S 50°01' E 145°31'7 1.1 1000.6 8.0
2016-Dec-09 22:00S 50°00' E 145°21'1 1.0 1001.5 8.0
2016-Dec-09 21:00S 50°01' E 145°20'1 0.7 1001.6 7.9
2016-Dec-09 20:00S 50°00' E 145°19'2 2.0 1001.6 7.9
2016-Dec-09 19:00S 50°01' E 145°17'0 0.0 1001.6 7.9
2016-Dec-09 18:00S 50°01' E 145°17'1 0.6 1001.6 7.9
2016-Dec-09 17:00S 50°01' E 145°17'2 1.7 1001.7 7.9
2016-Dec-09 16:00S 50°02' E 145°15'0 0.0 1002.1 7.9
2016-Dec-09 15:00S 50°02' E 145°15'2 1.7 1002.8 7.9
2016-Dec-09 14:00S 50°03' E 145°13'1 0.7 1003.2 7.9
2016-Dec-09 13:00S 50°02' E 145°13'1 1.3 1003.8 7.9
2016-Dec-09 12:00S 50°03' E 145°11'1 0.7 1004.4 7.9
2016-Dec-09 11:00S 50°04' E 145°10'3 1.4 1004.8 7.9
2016-Dec-09 09:00S 50°03' E 145°06'1 0.7 1004.9 7.9
2016-Dec-09 08:00S 50°02' E 145°05'2 1.7 1004.8 7.9
2016-Dec-09 07:00S 50°03' E 145°03'0 0.0 1004.7 8.0
2016-Dec-09 06:00S 50°03' E 145°03'0 0.0 1004.6 8.0
2016-Dec-09 05:00S 50°03' E 145°03'0 0.0 1004.4 7.9
2016-Dec-09 04:00S 50°03' E 145°03'4 0.8 1004.2 7.9
2016-Dec-08 23:00S 50°07' E 145°01'0 0.0 1002.3 7.9
2016-Dec-08 22:00S 50°07' E 145°01'2 2.3 1002.0 7.9
2016-Dec-08 21:00S 50°08' E 144°58'3 0.8 1001.2 7.9
2016-Dec-08 17:00S 50°09' E 144°53'0 0.0 998.4 7.9
2016-Dec-08 16:00S 50°09' E 144°53'0 0.0 997.7 8.0
2016-Dec-08 15:00S 50°09' E 144°53'0 0.4 997.4 8.0
2016-Dec-08 14:00S 50°09' E 144°52'0 0.0 996.9 8.0
2016-Dec-08 13:00S 50°09' E 144°52'1 0.7 996.7 8.0
2016-Dec-08 12:00S 50°10' E 144°52'1 1.4 996.5 8.0
2016-Dec-08 11:00S 50°11' E 144°53'1 0.6 996.3 8.0
2016-Dec-08 09:00S 50°12' E 144°53'1 1.4 994.3 8.0
2016-Dec-08 08:00S 50°13' E 144°52'0 0.0 993.2 8.0
2016-Dec-08 07:00S 50°13' E 144°52'2 1.9 992.3 8.0
2016-Dec-08 06:00S 50°14' E 144°49'0 0.0 991.4 8.1
2016-Dec-08 05:00S 50°14' E 144°49'2 1.7 991.0 8.1
2016-Dec-08 04:00S 50°16' E 144°47'3 0.6 990.1 8.2
2016-Dec-08 00:00S 50°17' E 144°44'1 0.6 989.1 8.0
2016-Dec-07 23:00S 50°17' E 144°44'1 0.8 989.5 8.0
2016-Dec-07 22:00S 50°17' E 144°43'0 0.0 989.8 8.0
2016-Dec-07 21:00S 50°17' E 144°43'1 1.3 989.2 8.0
2016-Dec-07 20:00S 50°19' E 144°42'0 0.0 989.0 8.0
2016-Dec-07 19:00S 50°19' E 144°42'1 1.4 988.8 8.0
2016-Dec-07 18:00S 50°20' E 144°41'0 0.0 989.1 8.0
2016-Dec-07 17:00S 50°20' E 144°41'2 1.7 989.0 8.0
2016-Dec-07 16:00S 50°21' E 144°39'2 1.9 989.4 8.0
2016-Dec-07 15:00S 50°22' E 144°37'1 0.6 989.5 8.0
2016-Dec-07 14:00S 50°23' E 144°37'1 1.3 989.7 8.0
2016-Dec-07 13:00S 50°23' E 144°35'1 0.8 989.8 8.0
2016-Dec-07 12:00S 50°23' E 144°34'1 0.7 989.7 8.0
2016-Dec-07 11:00S 50°24' E 144°33'2 0.6 989.9 8.0
2016-Dec-07 08:00S 50°24' E 144°30'0 0.4 990.3 8.0
2016-Dec-07 07:00S 50°24' E 144°29'5 0.6 990.8 8.0
2016-Dec-06 23:00S 50°28' E 144°25'1 1.0 998.5 8.0
2016-Dec-06 22:00S 50°28' E 144°23'0 0.0 998.7 8.0
2016-Dec-06 21:00S 50°28' E 144°23'1 1.3 998.5 8.0
2016-Dec-06 20:00S 50°29' E 144°22'1 1.3 997.9 8.0
2016-Dec-06 19:00S 50°29' E 144°20'0 0.0 997.5 7.9
2016-Dec-06 18:00S 50°29' E 144°20'1 0.4 996.7 8.0
2016-Dec-06 16:00S 50°29' E 144°19'0 0.0 995.5 8.0
2016-Dec-06 15:00S 50°29' E 144°19'1 1.2 994.3 8.0
2016-Dec-06 14:00S 50°31' E 144°19'0 0.0 993.7 8.0
2016-Dec-06 13:00S 50°31' E 144°19'1 1.2 993.3 8.0
2016-Dec-06 12:00S 50°32' E 144°19'1 0.7 992.9 8.1
2016-Dec-06 11:00S 50°32' E 144°18'2 1.7 993.0 8.1
2016-Dec-06 10:00S 50°34' E 144°16'0 0.0 993.3 8.1
2016-Dec-06 09:00S 50°34' E 144°16'2 0.6 994.1 8.1
2016-Dec-06 06:00S 50°35' E 144°14'2 1.6 995.8 8.1
2016-Dec-06 05:00S 50°35' E 144°11'0 0.0 996.2 8.1
2016-Dec-06 04:00S 50°35' E 144°11'0 0.0 996.3 8.0
2016-Dec-06 03:00S 50°35' E 144°11'1 0.3 996.1 8.0
2016-Dec-06 00:00S 50°35' E 144°10'1 0.7 996.8 7.9
2016-Dec-05 23:00S 50°36' E 144°11'1 0.8 997.4 7.9
2016-Dec-05 22:00S 50°36' E 144°10'1 0.6 997.9 7.9
2016-Dec-05 21:00S 50°37' E 144°10'2 2.0 997.9 7.9
2016-Dec-05 20:00S 50°38' E 144°08'0 0.0 997.8 7.9
2016-Dec-05 19:00S 50°38' E 144°08'1 0.7 997.4 7.9
2016-Dec-05 18:00S 50°39' E 144°08'1 1.3 996.9 7.9
2016-Dec-05 17:00S 50°40' E 144°06'0 0.0 996.3 7.9
2016-Dec-05 16:00S 50°40' E 144°06'2 2.0 996.4 7.9
2016-Dec-05 15:00S 50°41' E 144°05'0 0.0 995.9 7.9
2016-Dec-05 14:00S 50°41' E 144°05'1 1.3 995.7 7.9
2016-Dec-05 13:00S 50°41' E 144°03'1 0.7 995.3 7.9
2016-Dec-05 12:00S 50°41' E 144°02'1 1.1 995.0 7.9
2016-Dec-05 11:00S 50°41' E 144°01'0 0.0 994.6 7.9
2016-Dec-05 10:00S 50°41' E 144°01'1 1.3 993.8 7.9
2016-Dec-05 09:00S 50°43' E 144°00'0 0.0 993.2 7.9
2016-Dec-05 08:00S 50°43' E 144°00'0 0.2 992.2 7.9
2016-Dec-05 06:00S 50°43' E 143°59'1 0.7 990.0 7.9
2016-Dec-05 05:00S 50°43' E 143°59'7 1.1 988.6 7.9
2016-Dec-04 23:00S 50°49' E 143°54'1 1.0 974.4 7.8
2016-Dec-04 22:00S 50°50' E 143°53'2 1.2 970.9 7.8
2016-Dec-04 20:00S 50°50' E 143°49'1 1.0 970.6 7.8
2016-Dec-04 19:00S 50°51' E 143°48'1 0.6 971.8 7.8
2016-Dec-04 18:00S 50°50' E 143°48'1 0.6 972.8 7.8
2016-Dec-04 16:00S 50°50' E 143°46'1 0.7 975.7 7.8
2016-Dec-04 15:00S 50°50' E 143°46'1 0.6 977.5 7.8
2016-Dec-04 14:00S 50°50' E 143°46'0 0.4 979.7 7.9
2016-Dec-04 13:00S 50°50' E 143°46'0 0.0 982.0 7.9
2016-Dec-04 12:00S 50°50' E 143°46'0 0.4 984.7 7.9
2016-Dec-04 11:00S 50°50' E 143°46'0 0.0 986.9 7.9
2016-Dec-04 10:00S 50°50' E 143°46'2 1.7 989.0 7.9
2016-Dec-04 09:00S 50°52' E 143°44'0 0.4 990.6 7.9
2016-Dec-04 08:00S 50°52' E 143°43'0 0.0 991.9 7.9
2016-Dec-04 07:00S 50°52' E 143°43'2 1.0 992.7 7.9
2016-Dec-04 05:00S 50°52' E 143°40'0 0.0 993.9 7.9
2016-Dec-04 04:00S 50°52' E 143°40'2 0.5 994.4 7.9
2016-Dec-03 23:00S 50°52' E 143°37'0 0.0 997.8 7.8
2016-Dec-03 22:00S 50°52' E 143°37'0 0.0 998.7 7.8
2016-Dec-03 21:00S 50°52' E 143°37'1 1.3 998.9 7.8
2016-Dec-03 20:00S 50°51' E 143°35'1 0.7 998.7 7.8
2016-Dec-03 19:00S 50°52' E 143°35'1 0.6 998.7 7.8
2016-Dec-03 18:00S 50°52' E 143°35'0 0.0 998.8 7.7
2016-Dec-03 17:00S 50°52' E 143°35'1 0.8 998.8 7.7
2016-Dec-03 16:00S 50°52' E 143°34'0 0.0 999.0 7.7
2016-Dec-03 15:00S 50°52' E 143°34'1 1.0 999.0 7.7
2016-Dec-03 14:00S 50°53' E 143°33'1 0.4 998.8 7.7
2016-Dec-03 12:00S 50°53' E 143°32'0 0.0 998.5 7.7
2016-Dec-03 11:00S 50°53' E 143°32'0 0.4 998.3 7.7
2016-Dec-03 10:00S 50°53' E 143°31'0 0.4 997.7 7.7
2016-Dec-03 09:00S 50°53' E 143°31'0 0.2 997.3 7.7
2016-Dec-03 07:00S 50°53' E 143°30'0 0.0 996.5 7.7
2016-Dec-03 06:00S 50°53' E 143°30'3 0.5 996.3 7.7
2016-Dec-03 00:00S 50°54' E 143°26'0 0.4 995.5 7.6
2016-Dec-02 23:00S 50°54' E 143°25'1 0.2 995.3 7.6
2016-Dec-02 20:00S 50°55' E 143°25'1 0.3 993.9 7.6
2016-Dec-02 17:00S 50°55' E 143°24'0 0.0 992.5 7.6
2016-Dec-02 16:00S 50°55' E 143°24'1 1.3 992.5 7.6
2016-Dec-02 15:00S 50°55' E 143°22'0 0.0 992.5 7.6
2016-Dec-02 14:00S 50°55' E 143°22'0 0.4 992.1 7.6
2016-Dec-02 13:00S 50°55' E 143°22'1 0.4 991.9 7.6
2016-Dec-02 11:00S 50°56' E 143°21'0 0.4 991.6 7.6
2016-Dec-02 10:00S 50°56' E 143°20'1 0.7 990.7 7.7
2016-Dec-02 09:00S 50°56' E 143°20'0 0.0 990.4 7.7
2016-Dec-02 08:00S 50°56' E 143°20'1 0.6 990.1 7.7
2016-Dec-02 06:00S 50°56' E 143°18'1 0.8 989.7 7.8
2016-Dec-02 05:00S 50°56' E 143°17'0 0.0 989.6 7.8
2016-Dec-02 04:00S 50°56' E 143°17'1 0.2 989.6 7.8
2016-Dec-01 23:00S 50°56' E 143°16'1 0.6 990.3 7.6
2016-Dec-01 22:00S 50°56' E 143°16'0 0.4 990.5 7.6
2016-Dec-01 21:00S 50°56' E 143°15'1 0.7 990.4 7.6
2016-Dec-01 20:00S 50°57' E 143°14'0 0.4 990.2 7.6
2016-Dec-01 19:00S 50°57' E 143°14'1 1.1 990.1 7.6
2016-Dec-01 18:00S 50°57' E 143°12'0 0.0 990.0 7.7
2016-Dec-01 17:00S 50°57' E 143°12'0 0.4 989.6 7.7
2016-Dec-01 16:00S 50°57' E 143°11'0 0.4 989.5 7.7
2016-Dec-01 15:00S 50°57' E 143°11'1 0.3 989.2 7.7
2016-Dec-01 13:00S 50°56' E 143°11'0 0.4 991.3 7.7
2016-Dec-01 12:00S 50°56' E 143°10'0 0.0 992.9 7.7
2016-Dec-01 11:00S 50°56' E 143°10'1 0.4 994.5 7.7
2016-Dec-01 08:00S 50°56' E 143°08'0 0.4 998.1 7.7
2016-Dec-01 07:00S 50°56' E 143°08'0 0.0 999.0 7.7
2016-Dec-01 06:00S 50°56' E 143°08'0 0.4 1000.4 7.7
2016-Dec-01 05:00S 50°56' E 143°07'0 0.0 1001.2 7.7
2016-Dec-01 04:00S 50°56' E 143°07'1 0.5 1001.9 7.7
2016-Dec-01 01:00S 50°55' E 143°06'1 1.4 1004.1 7.6
2016-Dec-01 00:00S 50°56' E 143°07'   1004.9 7.6

Dump ship's entire track history